createdAt,value
2019-01-11T00:02:18.201Z,18.47
2019-01-11T00:04:47.831Z,18.63
2019-01-11T00:07:18.744Z,18.93
2019-01-11T00:09:48.401Z,17.30
2019-01-11T00:12:18.125Z,13.87
2019-01-11T00:14:47.799Z,14.40
2019-01-11T00:17:17.513Z,10.63
2019-01-11T00:19:47.169Z,13.10
2019-01-11T00:22:16.829Z,10.83
2019-01-11T00:24:46.537Z,9.77
2019-01-11T00:27:16.204Z,8.93
2019-01-11T00:29:45.883Z,8.57
2019-01-11T00:32:15.870Z,8.50
2019-01-11T00:34:46.784Z,9.43
2019-01-11T00:37:16.417Z,7.80
2019-01-11T00:39:47.211Z,8.53
2019-01-11T00:42:16.875Z,8.77
2019-01-11T00:44:46.524Z,7.23
2019-01-11T00:47:16.208Z,9.47
2019-01-11T00:49:45.991Z,11.10
2019-01-11T00:52:15.640Z,11.87
2019-01-11T00:54:45.270Z,7.83
2019-01-11T00:57:14.899Z,9.77
2019-01-11T00:59:44.644Z,9.60
2019-01-11T01:02:14.315Z,8.23
2019-01-11T01:04:44.043Z,6.60
2019-01-11T01:07:13.737Z,7.97
2019-01-11T01:09:43.390Z,6.63
2019-01-11T01:12:13.028Z,5.43
2019-01-11T01:14:42.732Z,5.97
2019-01-11T01:17:12.359Z,6.00
2019-01-11T01:19:42.029Z,5.17
2019-01-11T01:22:11.706Z,7.23
2019-01-11T01:24:41.364Z,5.93
2019-01-11T01:27:11.086Z,6.90
2019-01-11T01:29:40.721Z,5.13
2019-01-11T01:32:10.431Z,5.27
2019-01-11T01:34:40.078Z,5.00
2019-01-11T01:37:09.707Z,5.37
2019-01-11T01:39:39.366Z,5.13
2019-01-11T01:42:11.560Z,5.87
2019-01-11T01:44:41.201Z,4.77
2019-01-11T01:47:10.848Z,5.37
2019-01-11T01:49:40.507Z,4.27
2019-01-11T01:52:10.196Z,5.43
2019-01-11T01:54:39.824Z,5.97
2019-01-11T01:57:09.456Z,7.17
2019-01-11T01:59:39.133Z,6.10
2019-01-11T02:02:08.827Z,7.60
2019-01-11T02:04:38.580Z,5.07
2019-01-11T02:07:08.217Z,4.60
2019-01-11T02:09:39.020Z,5.67
2019-01-11T02:12:08.673Z,4.60
2019-01-11T02:14:38.332Z,5.07
2019-01-11T02:17:07.999Z,5.73
2019-01-11T02:19:37.631Z,5.57
2019-01-11T02:22:08.661Z,5.43
2019-01-11T02:24:38.388Z,4.23
2019-01-11T02:27:08.180Z,5.53
2019-01-11T02:29:37.829Z,4.77
2019-01-11T02:32:07.502Z,5.50
2019-01-11T02:34:37.128Z,4.93
2019-01-11T02:37:06.781Z,4.33
2019-01-11T02:39:36.423Z,5.67
2019-01-11T02:42:06.087Z,4.10
2019-01-11T02:44:35.762Z,2.90
2019-01-11T02:47:05.429Z,6.27
2019-01-11T02:49:40.006Z,4.73
2019-01-11T02:52:06.050Z,5.20
2019-01-11T02:54:35.695Z,3.07
2019-01-11T02:57:05.340Z,5.60
2019-01-11T02:59:34.996Z,3.43
2019-01-11T03:02:04.684Z,3.83
2019-01-11T03:04:34.496Z,4.30
2019-01-11T03:07:04.178Z,5.33
2019-01-11T03:09:33.859Z,2.67
2019-01-11T03:12:03.520Z,4.03
2019-01-11T03:14:33.227Z,7.20
2019-01-11T03:17:02.867Z,4.07
2019-01-11T03:19:32.591Z,3.87
2019-01-11T03:22:02.231Z,2.53
2019-01-11T03:24:31.897Z,4.73
2019-01-11T03:27:01.545Z,3.77
2019-01-11T03:29:31.291Z,2.57
2019-01-11T03:32:01.022Z,3.07
2019-01-11T03:34:30.709Z,4.23
2019-01-11T03:37:00.416Z,4.50
2019-01-11T03:39:30.059Z,5.80
2019-01-11T03:42:06.041Z,4.67
2019-01-11T03:44:35.728Z,2.87
2019-01-11T03:47:05.408Z,4.80
2019-01-11T03:49:35.133Z,3.07
2019-01-11T03:52:04.809Z,4.37
2019-01-11T03:54:34.463Z,2.00
2019-01-11T03:57:04.104Z,2.93
2019-01-11T03:59:33.735Z,3.80
2019-01-11T04:02:03.423Z,4.53
2019-01-11T04:04:33.092Z,3.70
2019-01-11T04:07:02.707Z,4.63
2019-01-11T04:09:32.349Z,3.43
2019-01-11T04:12:02.072Z,3.33
2019-01-11T04:14:31.717Z,5.37
2019-01-11T04:17:01.404Z,2.17
2019-01-11T04:19:32.259Z,2.83
2019-01-11T04:22:07.488Z,4.13
2019-01-11T04:24:41.353Z,3.03
2019-01-11T04:27:11.015Z,2.07
2019-01-11T04:29:40.682Z,3.30
2019-01-11T04:32:10.315Z,3.93
2019-01-11T04:34:39.993Z,2.13
2019-01-11T04:37:09.658Z,2.40
2019-01-11T04:39:39.311Z,3.10
2019-01-11T04:42:09.004Z,4.13
2019-01-11T04:44:38.703Z,1.70
2019-01-11T04:47:08.338Z,1.77
2019-01-11T04:49:39.248Z,2.97
2019-01-11T04:52:08.875Z,2.60
2019-01-11T04:54:38.514Z,2.47
2019-01-11T04:57:08.315Z,2.87
2019-01-11T04:59:38.109Z,2.73
2019-01-11T05:02:07.743Z,2.63
2019-01-11T05:04:37.513Z,2.17
2019-01-11T05:07:07.228Z,3.83
2019-01-11T05:09:39.721Z,3.60
2019-01-11T05:12:09.481Z,4.20
2019-01-11T05:14:39.145Z,3.77
2019-01-11T05:17:10.067Z,3.63
2019-01-11T05:19:39.719Z,4.53
2019-01-11T05:22:09.336Z,3.60
2019-01-11T05:24:38.988Z,3.03
2019-01-11T05:27:08.608Z,2.63
2019-01-11T05:29:38.338Z,3.17
2019-01-11T05:32:07.977Z,3.83
2019-01-11T05:34:37.637Z,4.57
2019-01-11T05:37:07.276Z,4.83
2019-01-11T05:39:38.230Z,6.10
2019-01-11T05:42:07.850Z,5.83
2019-01-11T05:44:37.502Z,3.13
2019-01-11T05:47:07.197Z,2.70
2019-01-11T05:49:36.869Z,2.50
2019-01-11T05:52:06.530Z,3.93
2019-01-11T05:54:36.169Z,3.90
2019-01-11T05:57:05.830Z,3.47
2019-01-11T05:59:35.470Z,3.57
2019-01-11T06:02:05.179Z,6.20
2019-01-11T06:04:40.117Z,5.63
2019-01-11T06:07:14.050Z,4.60
2019-01-11T06:09:43.693Z,4.53
2019-01-11T06:12:13.344Z,4.43
2019-01-11T06:14:44.209Z,6.17
2019-01-11T06:17:13.880Z,5.80
2019-01-11T06:19:43.532Z,7.57
2019-01-11T06:22:13.164Z,4.07
2019-01-11T06:24:42.827Z,4.90
2019-01-11T06:27:15.022Z,7.13
2019-01-11T06:29:44.675Z,4.10
2019-01-11T06:32:14.353Z,5.80
2019-01-11T06:34:45.258Z,5.70
2019-01-11T06:37:14.880Z,7.13
2019-01-11T06:39:44.497Z,6.80
2019-01-11T06:42:21.310Z,5.13
2019-01-11T06:44:50.944Z,5.37
2019-01-11T06:47:20.601Z,6.20
2019-01-11T06:49:50.275Z,7.37
2019-01-11T06:52:20.032Z,9.17
2019-01-11T06:54:49.762Z,9.80
2019-01-11T06:57:19.372Z,7.83
2019-01-11T06:59:50.531Z,10.77
2019-01-11T07:02:22.724Z,8.57
2019-01-11T07:04:52.362Z,9.47
2019-01-11T07:07:21.991Z,9.27
2019-01-11T07:09:51.720Z,8.87
2019-01-11T07:12:21.379Z,11.23
2019-01-11T07:14:51.009Z,7.87
2019-01-11T07:17:20.681Z,7.10
2019-01-11T07:19:51.510Z,11.77
2019-01-11T07:22:22.392Z,10.83
2019-01-11T07:24:54.195Z,8.57
2019-01-11T07:27:23.876Z,10.47
2019-01-11T07:29:53.526Z,10.87
2019-01-11T07:32:24.441Z,11.57
2019-01-11T07:34:54.099Z,12.40
2019-01-11T07:37:23.838Z,9.50
2019-01-11T07:39:53.659Z,8.03
2019-01-11T07:42:23.309Z,10.60
2019-01-11T07:44:52.990Z,9.57
2019-01-11T07:47:22.619Z,9.27
2019-01-11T07:49:52.277Z,9.40
2019-01-11T07:52:23.260Z,9.67
2019-01-11T07:54:52.893Z,10.07
2019-01-11T07:57:22.639Z,11.33
2019-01-11T07:59:52.277Z,8.07
2019-01-11T08:02:21.980Z,12.17
2019-01-11T08:04:51.628Z,9.37
2019-01-11T08:07:21.263Z,7.40
2019-01-11T08:09:50.919Z,8.13
2019-01-11T08:12:26.003Z,7.47
2019-01-11T08:14:55.667Z,7.27
2019-01-11T08:17:25.312Z,9.90
2019-01-11T08:19:54.949Z,9.20
2019-01-11T08:22:41.079Z,8.03
2019-01-11T08:25:11.649Z,11.63
2019-01-11T08:27:41.308Z,11.87
2019-01-11T08:30:16.765Z,11.93
2019-01-11T08:32:45.521Z,9.53
2019-01-11T08:35:16.476Z,7.20
2019-01-11T08:37:46.126Z,7.57
2019-01-11T08:40:15.765Z,8.70
2019-01-11T08:42:45.424Z,11.13
2019-01-11T08:45:15.156Z,7.60
2019-01-11T08:47:44.824Z,6.87
2019-01-11T08:50:16.838Z,9.10
2019-01-11T08:52:46.456Z,9.13
2019-01-11T08:55:16.066Z,7.47
2019-01-11T08:57:47.021Z,7.60
2019-01-11T09:00:16.665Z,7.63
2019-01-11T09:02:46.288Z,10.23
2019-01-11T09:05:15.927Z,9.30
2019-01-11T09:07:45.565Z,7.17
2019-01-11T09:10:22.233Z,9.27
2019-01-11T09:12:45.226Z,8.27
2019-01-11T09:15:14.872Z,12.97
2019-01-11T09:17:50.047Z,11.60
2019-01-11T09:20:19.716Z,10.83
2019-01-11T09:22:49.376Z,13.90
2019-01-11T09:25:21.520Z,9.93
2019-01-11T09:27:51.179Z,8.33
2019-01-11T09:30:22.064Z,7.20
2019-01-11T09:32:51.699Z,9.93
2019-01-11T09:35:21.338Z,6.90
2019-01-11T09:37:50.991Z,7.93
2019-01-11T09:40:20.618Z,9.17
2019-01-11T09:42:50.285Z,7.33
2019-01-11T09:45:19.944Z,7.13
2019-01-11T09:47:49.602Z,7.33
2019-01-11T09:50:19.307Z,10.93
2019-01-11T09:52:48.935Z,8.60
2019-01-11T09:55:18.593Z,8.63
2019-01-11T09:57:48.247Z,9.30
2019-01-11T10:00:22.009Z,7.40
2019-01-11T10:02:56.919Z,9.37
2019-01-11T10:05:29.062Z,10.40
2019-01-11T10:07:58.720Z,8.77
2019-01-11T10:10:28.331Z,8.97
2019-01-11T10:12:59.223Z,9.60
2019-01-11T10:15:28.873Z,9.43
2019-01-11T10:17:58.517Z,9.93
2019-01-11T10:20:28.146Z,9.43
2019-01-11T10:22:57.795Z,11.20
2019-01-11T10:25:27.691Z,8.97
2019-01-11T10:27:57.351Z,8.17
2019-01-11T10:30:27.009Z,12.43
2019-01-11T10:32:57.887Z,12.20
2019-01-11T10:35:27.583Z,11.00
2019-01-11T10:37:57.325Z,8.17
2019-01-11T10:40:28.205Z,10.90
2019-01-11T10:42:59.421Z,11.83
2019-01-11T10:45:29.069Z,9.47
2019-01-11T10:47:59.585Z,8.50
2019-01-11T10:50:29.273Z,8.67
2019-01-11T10:52:58.915Z,7.93
2019-01-11T10:55:28.605Z,10.57
2019-01-11T10:57:58.259Z,7.23
2019-01-11T11:00:27.985Z,9.57
2019-01-11T11:02:57.804Z,10.63
2019-01-11T11:05:27.428Z,9.13
2019-01-11T11:07:57.355Z,8.97
2019-01-11T11:10:26.984Z,6.70
2019-01-11T11:12:56.615Z,7.83
2019-01-11T11:15:26.298Z,7.97
2019-01-11T11:17:56.037Z,9.83
2019-01-11T11:20:25.718Z,8.30
2019-01-11T11:22:55.353Z,9.23
2019-01-11T11:25:25.012Z,12.40
2019-01-11T11:27:57.132Z,9.20
2019-01-11T11:30:26.760Z,10.80
2019-01-11T11:32:59.840Z,5.87
2019-01-11T11:35:30.069Z,12.10
2019-01-11T11:37:59.757Z,7.53
2019-01-11T11:40:30.863Z,8.60
2019-01-11T11:43:00.549Z,8.37
2019-01-11T11:45:30.206Z,7.63
2019-01-11T11:47:59.873Z,8.23
2019-01-11T11:50:29.669Z,7.03
2019-01-11T11:52:59.324Z,5.07
2019-01-11T11:55:28.967Z,6.97
2019-01-11T11:57:59.833Z,7.00
2019-01-11T12:00:30.775Z,5.40
2019-01-11T12:03:00.419Z,6.80
2019-01-11T12:05:30.079Z,6.90
2019-01-11T12:07:59.783Z,6.03
2019-01-11T12:10:29.416Z,6.93
2019-01-11T12:12:59.064Z,8.23
2019-01-11T12:15:31.339Z,6.93
2019-01-11T12:18:01.011Z,7.23
2019-01-11T12:20:31.289Z,9.53
2019-01-11T12:23:02.251Z,9.47
2019-01-11T12:25:31.901Z,7.30
2019-01-11T12:28:02.999Z,7.40
2019-01-11T12:30:32.664Z,7.70
2019-01-11T12:33:02.329Z,7.37
2019-01-11T12:35:32.008Z,8.77
2019-01-11T12:38:01.708Z,7.33
2019-01-11T12:40:31.348Z,6.93
2019-01-11T12:43:02.345Z,6.23
2019-01-11T12:45:31.999Z,7.40
2019-01-11T12:48:01.711Z,6.53
2019-01-11T12:50:31.389Z,6.77
2019-01-11T12:53:01.102Z,6.30
2019-01-11T12:55:30.783Z,7.90
2019-01-11T12:58:00.427Z,6.60
2019-01-11T13:00:30.095Z,7.83
2019-01-11T13:02:59.783Z,9.20
2019-01-11T13:05:29.437Z,9.43
2019-01-11T13:07:59.135Z,11.17
2019-01-11T13:10:28.788Z,11.67
2019-01-11T13:12:58.449Z,8.83
2019-01-11T13:15:28.136Z,9.60
2019-01-11T13:17:57.792Z,12.50
2019-01-11T13:20:27.487Z,9.27
2019-01-11T13:22:57.136Z,9.77
2019-01-11T13:25:32.162Z,7.50
2019-01-11T13:27:56.505Z,7.07
2019-01-11T13:30:26.167Z,6.83
2019-01-11T13:32:55.815Z,9.43
2019-01-11T13:35:26.795Z,7.57
2019-01-11T13:37:56.445Z,7.33
2019-01-11T13:40:26.106Z,6.10
2019-01-11T13:42:55.766Z,8.00
2019-01-11T13:45:25.405Z,9.20
2019-01-11T13:47:55.110Z,9.97
2019-01-11T13:50:31.394Z,6.10
2019-01-11T13:53:02.460Z,8.10
2019-01-11T13:55:32.128Z,7.37
2019-01-11T13:58:01.785Z,6.87
2019-01-11T14:00:31.439Z,7.07
2019-01-11T14:03:01.066Z,6.87
2019-01-11T14:05:30.733Z,7.40
2019-01-11T14:08:00.395Z,8.10
2019-01-11T14:10:31.285Z,8.97
2019-01-11T14:13:00.976Z,9.97
2019-01-11T14:15:30.610Z,7.83
2019-01-11T14:18:00.314Z,7.93
2019-01-11T14:20:29.965Z,7.43
2019-01-11T14:23:00.893Z,8.07
2019-01-11T14:25:30.546Z,8.77
2019-01-11T14:28:00.183Z,10.67
2019-01-11T14:30:31.151Z,10.20
2019-01-11T14:33:00.803Z,8.33
2019-01-11T14:35:30.512Z,9.47
2019-01-11T14:38:00.150Z,12.53
2019-01-11T14:40:29.809Z,10.00
2019-01-11T14:43:02.036Z,7.83
2019-01-11T14:45:31.685Z,7.80
2019-01-11T14:48:01.445Z,10.47
2019-01-11T14:50:31.097Z,8.40
2019-01-11T14:53:00.811Z,7.07
2019-01-11T14:55:30.457Z,6.23
2019-01-11T14:58:00.181Z,6.83
2019-01-11T15:00:31.140Z,7.70
2019-01-11T15:03:00.932Z,7.67
2019-01-11T15:05:30.668Z,7.93
2019-01-11T15:08:00.380Z,6.97
2019-01-11T15:10:30.011Z,7.43
2019-01-11T15:12:59.745Z,9.73
2019-01-11T15:15:29.483Z,5.97
2019-01-11T15:17:59.126Z,7.97
2019-01-11T15:20:30.088Z,6.80
2019-01-11T15:22:59.753Z,9.90
2019-01-11T15:25:29.558Z,11.90
2019-01-11T15:27:59.271Z,9.77
2019-01-11T15:30:32.692Z,4.87
2019-01-11T15:33:03.683Z,4.43
2019-01-11T15:35:33.464Z,6.73
2019-01-11T15:38:03.183Z,6.87
2019-01-11T15:40:36.542Z,5.50
2019-01-11T15:43:03.895Z,5.70
2019-01-11T15:45:33.539Z,5.80
2019-01-11T15:48:04.547Z,5.90
2019-01-11T15:50:58.206Z,6.37
2019-01-11T15:53:34.065Z,6.57
2019-01-11T15:56:03.773Z,5.93
2019-01-11T15:58:33.469Z,5.20
2019-01-11T16:01:03.139Z,5.03
2019-01-11T16:03:32.777Z,5.87
2019-01-11T16:06:15.145Z,5.37
2019-01-11T16:09:59.893Z,7.20
2019-01-11T16:12:51.490Z,7.80
2019-01-11T16:15:33.370Z,7.97
2019-01-11T16:18:06.991Z,7.73
2019-01-11T16:20:36.748Z,19.90
2019-01-11T16:23:06.484Z,9.40
2019-01-11T16:25:38.575Z,8.30
2019-01-11T16:28:09.189Z,9.57
2019-01-11T16:30:38.925Z,8.87
2019-01-11T16:33:08.583Z,7.03
2019-01-11T16:35:38.416Z,7.57
2019-01-11T16:38:09.253Z,7.03
2019-01-11T16:40:39.124Z,9.37
2019-01-11T16:43:08.892Z,7.60
2019-01-11T16:45:38.590Z,7.30
2019-01-11T16:48:08.336Z,9.10
2019-01-11T16:50:38.061Z,12.73
2019-01-11T16:53:07.713Z,9.70
2019-01-11T16:55:38.685Z,12.27
2019-01-11T16:58:08.421Z,20.57
2019-01-11T17:00:38.175Z,19.67
2019-01-11T17:03:07.912Z,17.50
2019-01-11T17:05:37.595Z,14.10
2019-01-11T17:08:08.840Z,23.10
2019-01-11T17:10:38.581Z,26.53
2019-01-11T17:13:08.301Z,24.03
2019-01-11T17:15:37.999Z,1999.90
2019-01-11T17:18:07.676Z,1999.90
2019-01-11T17:20:38.657Z,1641.10
2019-01-11T17:23:08.366Z,846.57
2019-01-11T17:25:38.018Z,1722.03
2019-01-11T17:28:07.709Z,1999.90
2019-01-11T17:30:37.424Z,59.53
2019-01-11T17:33:07.055Z,40.27
2019-01-11T17:35:36.684Z,35.63
2019-01-11T17:38:08.813Z,29.67
2019-01-11T17:40:38.447Z,28.07
2019-01-11T17:43:09.418Z,30.17
2019-01-11T17:45:39.109Z,1999.90
2019-01-11T17:48:08.818Z,132.90
2019-01-11T17:50:38.485Z,279.83
2019-01-11T17:53:08.163Z,1383.87
2019-01-11T17:55:37.830Z,721.53
2019-01-11T17:58:07.550Z,17.90
2019-01-11T18:00:37.200Z,18.63
2019-01-11T18:03:08.425Z,21.20
2019-01-11T18:05:38.049Z,17.77
2019-01-11T18:08:07.782Z,22.40
2019-01-11T18:10:38.744Z,29.30
2019-01-11T18:13:08.472Z,28.73
2019-01-11T18:15:38.358Z,33.30
2019-01-11T18:18:08.002Z,35.13
2019-01-11T18:20:37.750Z,31.10
2019-01-11T18:23:07.841Z,30.47
2019-01-11T18:25:37.700Z,26.77
2019-01-11T18:28:08.879Z,21.63
2019-01-11T18:30:39.054Z,14.73
2019-01-11T18:33:11.240Z,19.77
2019-01-11T18:35:40.919Z,11.30
2019-01-11T18:38:10.725Z,11.03
2019-01-11T18:40:40.621Z,12.80
2019-01-11T18:43:10.805Z,15.00
2019-01-11T18:45:40.507Z,10.70
2019-01-11T18:48:10.403Z,13.63
2019-01-11T18:50:40.174Z,16.87
2019-01-11T18:53:13.676Z,11.60
2019-01-11T18:55:39.810Z,14.13
2019-01-11T18:58:09.670Z,15.37
2019-01-11T19:00:41.946Z,14.23
2019-01-11T19:03:11.649Z,13.00
2019-01-11T19:05:41.305Z,12.47
2019-01-11T19:08:11.056Z,12.53
2019-01-11T19:10:42.148Z,18.00
2019-01-11T19:13:11.792Z,15.43
2019-01-11T19:15:41.427Z,14.67
2019-01-11T19:18:12.393Z,16.87
2019-01-11T19:20:42.107Z,22.17
2019-01-11T19:23:11.760Z,23.23
2019-01-11T19:25:41.419Z,24.47
2019-01-11T19:28:11.110Z,20.33
2019-01-11T19:30:40.810Z,16.90
2019-01-11T19:33:13.018Z,14.20
2019-01-11T19:35:42.742Z,18.80
2019-01-11T19:38:13.652Z,20.10
2019-01-11T19:40:43.355Z,20.73
2019-01-11T19:43:13.108Z,24.60
2019-01-11T19:45:42.815Z,21.40
2019-01-11T19:48:12.496Z,19.00
2019-01-11T19:50:42.809Z,15.93
2019-01-11T19:53:13.223Z,16.23
2019-01-11T19:55:42.989Z,21.07
2019-01-11T19:58:12.921Z,12.70
2019-01-11T20:00:42.611Z,12.17
2019-01-11T20:03:14.852Z,11.67
2019-01-11T20:05:44.503Z,20.93
2019-01-11T20:08:14.144Z,20.53
2019-01-11T20:10:43.960Z,18.87
2019-01-11T20:13:13.641Z,15.73
2019-01-11T20:15:43.389Z,18.43
2019-01-11T20:18:13.119Z,17.23
2019-01-11T20:20:44.129Z,13.23
2019-01-11T20:23:13.827Z,15.00
2019-01-11T20:25:43.561Z,17.00
2019-01-11T20:28:13.408Z,16.87
2019-01-11T20:30:43.118Z,17.53
2019-01-11T20:33:12.815Z,14.80
2019-01-11T20:35:43.583Z,15.40
2019-01-11T20:38:13.981Z,18.10
2019-01-11T20:40:43.888Z,17.83
2019-01-11T20:43:16.097Z,23.43
2019-01-11T20:45:46.235Z,25.10
2019-01-11T20:48:16.572Z,24.30
2019-01-11T20:50:46.604Z,28.00
2019-01-11T20:53:16.832Z,21.13
2019-01-11T20:55:46.542Z,20.80
2019-01-11T20:58:20.164Z,23.67
2019-01-11T21:00:50.372Z,20.33
2019-01-11T21:03:22.526Z,24.93
2019-01-11T21:05:52.463Z,23.63
2019-01-11T21:08:24.628Z,27.57
2019-01-11T21:10:55.634Z,20.97
2019-01-11T21:13:26.548Z,22.03
2019-01-11T21:15:58.736Z,24.57
2019-01-11T21:18:28.503Z,23.53
2019-01-11T21:20:59.663Z,23.17
2019-01-11T21:23:29.330Z,25.13
2019-01-11T21:25:58.992Z,17.10
2019-01-11T21:28:30.808Z,29.70
2019-01-11T21:31:01.550Z,29.83
2019-01-11T21:33:34.085Z,21.70
2019-01-11T21:36:05.435Z,23.43
2019-01-11T21:38:35.123Z,26.93
2019-01-11T21:41:04.780Z,24.00
2019-01-11T21:43:36.911Z,20.33
2019-01-11T21:46:08.369Z,18.53
2019-01-11T21:48:39.287Z,23.97
2019-01-11T21:51:09.973Z,23.90
2019-01-11T21:53:40.060Z,30.73
2019-01-11T21:56:09.821Z,24.67
2019-01-11T21:58:39.534Z,24.80
2019-01-11T22:01:10.081Z,26.27
2019-01-11T22:03:40.386Z,26.83
2019-01-11T22:06:11.882Z,27.57
2019-01-11T22:08:42.194Z,21.83
2019-01-11T22:11:11.879Z,26.07
2019-01-11T22:13:42.771Z,24.60
2019-01-11T22:16:14.041Z,21.63
2019-01-11T22:18:44.512Z,24.13
2019-01-11T22:21:14.214Z,21.90
2019-01-11T22:23:43.877Z,25.30
2019-01-11T22:26:14.870Z,22.93
2019-01-11T22:28:46.960Z,16.30
2019-01-11T22:31:16.687Z,15.87
2019-01-11T22:33:46.350Z,22.10
2019-01-11T22:36:16.010Z,14.17
2019-01-11T22:38:46.919Z,8.90
2019-01-11T22:41:17.917Z,11.10
2019-01-11T22:43:47.598Z,13.00
2019-01-11T22:46:18.590Z,19.83
2019-01-11T22:48:48.199Z,9.47
2019-01-11T22:51:19.143Z,10.57
2019-01-11T22:53:48.780Z,13.23
2019-01-11T22:56:18.430Z,8.87
2019-01-11T22:58:49.352Z,10.03
2019-01-11T23:01:29.681Z,16.67
2019-01-11T23:03:59.369Z,9.63
2019-01-11T23:06:41.967Z,13.60
2019-01-11T23:09:13.973Z,10.83
2019-01-11T23:11:59.006Z,15.67
2019-01-11T23:14:29.944Z,9.10
2019-01-11T23:17:11.534Z,21.07
2019-01-11T23:19:41.241Z,14.77
2019-01-11T23:22:10.974Z,19.60
2019-01-11T23:24:40.729Z,11.80
2019-01-11T23:27:10.456Z,12.43
2019-01-11T23:29:40.150Z,14.03
2019-01-11T23:32:09.830Z,18.60
2019-01-11T23:34:40.711Z,17.13
2019-01-11T23:37:11.593Z,25.27
2019-01-11T23:39:42.530Z,26.17
2019-01-11T23:42:12.204Z,25.80
2019-01-11T23:44:45.729Z,25.23
2019-01-11T23:47:15.403Z,21.73
2019-01-11T23:49:45.059Z,30.70
2019-01-11T23:52:15.977Z,23.07
2019-01-11T23:54:45.635Z,22.97
2019-01-11T23:57:15.273Z,20.47
2019-01-11T23:59:46.229Z,25.43
